sensor_id;sensor_type;location;lat;lon;timestamp;P1;durP1;ratioP1;P2;durP2;ratioP2
15693;SDS011;7947;48.834;9.132;2023-02-28T00:00:12;1.60;;;1.20;;
15693;SDS011;7947;48.834;9.132;2023-02-28T00:03:16;1.47;;;1.20;;
15693;SDS011;7947;48.834;9.132;2023-02-28T00:06:19;2.37;;;1.07;;
15693;SDS011;7947;48.834;9.132;2023-02-28T00:09:24;1.77;;;1.13;;
15693;SDS011;7947;48.834;9.132;2023-02-28T00:12:27;3.20;;;1.20;;
15693;SDS011;7947;48.834;9.132;2023-02-28T00:15:30;3.20;;;1.37;;
15693;SDS011;7947;48.834;9.132;2023-02-28T00:18:33;1.70;;;1.40;;
15693;SDS011;7947;48.834;9.132;2023-02-28T00:21:36;3.93;;;1.70;;
15693;SDS011;7947;48.834;9.132;2023-02-28T00:24:43;2.87;;;1.60;;
15693;SDS011;7947;48.834;9.132;2023-02-28T00:27:46;2.57;;;1.67;;
15693;SDS011;7947;48.834;9.132;2023-02-28T00:30:50;2.93;;;1.43;;
15693;SDS011;7947;48.834;9.132;2023-02-28T00:33:53;1.77;;;1.30;;
15693;SDS011;7947;48.834;9.132;2023-02-28T00:36:56;1.90;;;1.50;;
15693;SDS011;7947;48.834;9.132;2023-02-28T00:40:00;2.63;;;1.50;;
15693;SDS011;7947;48.834;9.132;2023-02-28T00:43:05;3.80;;;1.40;;
15693;SDS011;7947;48.834;9.132;2023-02-28T00:46:08;2.50;;;1.33;;
15693;SDS011;7947;48.834;9.132;2023-02-28T00:49:11;3.00;;;1.50;;
15693;SDS011;7947;48.834;9.132;2023-02-28T00:52:14;2.07;;;1.50;;
15693;SDS011;7947;48.834;9.132;2023-02-28T00:55:18;1.50;;;1.40;;
15693;SDS011;7947;48.834;9.132;2023-02-28T00:58:21;3.27;;;1.50;;
15693;SDS011;7947;48.834;9.132;2023-02-28T01:01:24;2.87;;;1.50;;
15693;SDS011;7947;48.834;9.132;2023-02-28T01:04:28;2.00;;;1.57;;
15693;SDS011;7947;48.834;9.132;2023-02-28T01:07:31;1.87;;;1.60;;
15693;SDS011;7947;48.834;9.132;2023-02-28T01:10:35;2.33;;;1.67;;
15693;SDS011;7947;48.834;9.132;2023-02-28T01:13:39;3.10;;;2.03;;
15693;SDS011;7947;48.834;9.132;2023-02-28T01:16:42;4.47;;;2.27;;
15693;SDS011;7947;48.834;9.132;2023-02-28T01:19:46;2.83;;;1.77;;
15693;SDS011;7947;48.834;9.132;2023-02-28T01:22:48;3.00;;;1.80;;
15693;SDS011;7947;48.834;9.132;2023-02-28T01:25:52;2.07;;;1.50;;
15693;SDS011;7947;48.834;9.132;2023-02-28T01:28:56;1.80;;;1.50;;
15693;SDS011;7947;48.834;9.132;2023-02-28T01:31:59;3.23;;;1.53;;
15693;SDS011;7947;48.834;9.132;2023-02-28T01:35:02;3.17;;;2.20;;
15693;SDS011;7947;48.834;9.132;2023-02-28T01:38:05;3.43;;;1.73;;
15693;SDS011;7947;48.834;9.132;2023-02-28T01:41:25;3.53;;;1.97;;
15693;SDS011;7947;48.834;9.132;2023-02-28T01:47:59;1.87;;;1.50;;
15693;SDS011;7947;48.834;9.132;2023-02-28T01:51:08;2.63;;;1.97;;
15693;SDS011;7947;48.834;9.132;2023-02-28T01:54:16;1.60;;;1.47;;
15693;SDS011;7947;48.834;9.132;2023-02-28T01:57:25;2.27;;;1.80;;
15693;SDS011;7947;48.834;9.132;2023-02-28T02:00:32;2.20;;;1.67;;
15693;SDS011;7947;48.834;9.132;2023-02-28T02:03:35;4.57;;;2.03;;
15693;SDS011;7947;48.834;9.132;2023-02-28T02:06:40;5.30;;;2.17;;
15693;SDS011;7947;48.834;9.132;2023-02-28T02:09:45;2.73;;;1.90;;
15693;SDS011;7947;48.834;9.132;2023-02-28T02:13:05;4.53;;;2.17;;
15693;SDS011;7947;48.834;9.132;2023-02-28T02:16:28;2.30;;;1.77;;
15693;SDS011;7947;48.834;9.132;2023-02-28T02:19:48;1.77;;;1.47;;
15693;SDS011;7947;48.834;9.132;2023-02-28T02:23:33;2.40;;;1.80;;
15693;SDS011;7947;48.834;9.132;2023-02-28T02:27:03;2.07;;;1.90;;
15693;SDS011;7947;48.834;9.132;2023-02-28T02:37:26;3.13;;;1.53;;
15693;SDS011;7947;48.834;9.132;2023-02-28T02:40:37;2.33;;;1.83;;
15693;SDS011;7947;48.834;9.132;2023-02-28T02:43:46;2.87;;;1.97;;
15693;SDS011;7947;48.834;9.132;2023-02-28T02:46:53;4.70;;;1.60;;
15693;SDS011;7947;48.834;9.132;2023-02-28T02:50:03;4.33;;;2.30;;
15693;SDS011;7947;48.834;9.132;2023-02-28T02:53:09;3.63;;;2.17;;
15693;SDS011;7947;48.834;9.132;2023-02-28T02:56:14;5.80;;;3.03;;
15693;SDS011;7947;48.834;9.132;2023-02-28T02:59:20;2.17;;;1.80;;
15693;SDS011;7947;48.834;9.132;2023-02-28T03:02:25;2.20;;;1.87;;
15693;SDS011;7947;48.834;9.132;2023-02-28T03:05:39;2.80;;;1.80;;
15693;SDS011;7947;48.834;9.132;2023-02-28T03:08:46;2.10;;;1.93;;
15693;SDS011;7947;48.834;9.132;2023-02-28T03:11:50;4.00;;;1.93;;
15693;SDS011;7947;48.834;9.132;2023-02-28T03:14:59;2.80;;;1.83;;
15693;SDS011;7947;48.834;9.132;2023-02-28T03:18:11;3.10;;;1.80;;
15693;SDS011;7947;48.834;9.132;2023-02-28T03:21:30;3.57;;;1.77;;
15693;SDS011;7947;48.834;9.132;2023-02-28T03:24:39;4.37;;;1.93;;
15693;SDS011;7947;48.834;9.132;2023-02-28T03:27:52;4.13;;;3.00;;
15693;SDS011;7947;48.834;9.132;2023-02-28T03:31:06;3.30;;;2.10;;
15693;SDS011;7947;48.834;9.132;2023-02-28T03:34:14;3.73;;;2.30;;
15693;SDS011;7947;48.834;9.132;2023-02-28T03:37:23;2.30;;;1.83;;
15693;SDS011;7947;48.834;9.132;2023-02-28T03:40:28;3.37;;;2.47;;
15693;SDS011;7947;48.834;9.132;2023-02-28T03:43:35;3.20;;;2.17;;
15693;SDS011;7947;48.834;9.132;2023-02-28T03:46:44;2.10;;;1.77;;
15693;SDS011;7947;48.834;9.132;2023-02-28T03:49:52;2.10;;;1.87;;
15693;SDS011;7947;48.834;9.132;2023-02-28T03:53:00;2.00;;;1.47;;
15693;SDS011;7947;48.834;9.132;2023-02-28T03:56:07;2.73;;;2.00;;
15693;SDS011;7947;48.834;9.132;2023-02-28T03:59:16;4.70;;;2.60;;
15693;SDS011;7947;48.834;9.132;2023-02-28T04:02:22;3.47;;;2.13;;
15693;SDS011;7947;48.834;9.132;2023-02-28T04:05:25;5.13;;;2.20;;
15693;SDS011;7947;48.834;9.132;2023-02-28T04:08:31;4.77;;;2.60;;
15693;SDS011;7947;48.834;9.132;2023-02-28T04:11:35;2.60;;;2.13;;
15693;SDS011;7947;48.834;9.132;2023-02-28T04:14:40;3.17;;;2.40;;
15693;SDS011;7947;48.834;9.132;2023-02-28T04:17:43;2.10;;;1.90;;
15693;SDS011;7947;48.834;9.132;2023-02-28T04:20:45;4.40;;;2.40;;
15693;SDS011;7947;48.834;9.132;2023-02-28T04:23:49;4.67;;;2.57;;
15693;SDS011;7947;48.834;9.132;2023-02-28T04:26:53;3.17;;;2.30;;
15693;SDS011;7947;48.834;9.132;2023-02-28T04:29:57;2.60;;;2.13;;
15693;SDS011;7947;48.834;9.132;2023-02-28T04:33:00;2.63;;;2.23;;
15693;SDS011;7947;48.834;9.132;2023-02-28T04:36:03;2.73;;;2.43;;
15693;SDS011;7947;48.834;9.132;2023-02-28T04:39:09;4.67;;;2.70;;
15693;SDS011;7947;48.834;9.132;2023-02-28T04:42:12;3.97;;;2.47;;
15693;SDS011;7947;48.834;9.132;2023-02-28T04:45:16;3.70;;;2.33;;
15693;SDS011;7947;48.834;9.132;2023-02-28T04:48:19;4.07;;;2.73;;
15693;SDS011;7947;48.834;9.132;2023-02-28T04:51:22;3.47;;;2.70;;
15693;SDS011;7947;48.834;9.132;2023-02-28T04:54:26;4.30;;;2.37;;
15693;SDS011;7947;48.834;9.132;2023-02-28T04:57:30;4.20;;;2.50;;
15693;SDS011;7947;48.834;9.132;2023-02-28T05:00:33;3.37;;;2.40;;
15693;SDS011;7947;48.834;9.132;2023-02-28T05:03:35;2.87;;;2.43;;
15693;SDS011;7947;48.834;9.132;2023-02-28T05:06:38;4.10;;;2.90;;
15693;SDS011;7947;48.834;9.132;2023-02-28T05:09:42;4.23;;;2.60;;
15693;SDS011;7947;48.834;9.132;2023-02-28T05:12:45;3.83;;;2.60;;
15693;SDS011;7947;48.834;9.132;2023-02-28T05:15:49;7.20;;;2.70;;
15693;SDS011;7947;48.834;9.132;2023-02-28T05:18:52;3.97;;;2.77;;
15693;SDS011;7947;48.834;9.132;2023-02-28T05:21:55;6.47;;;2.67;;
15693;SDS011;7947;48.834;9.132;2023-02-28T05:24:59;6.33;;;3.00;;
15693;SDS011;7947;48.834;9.132;2023-02-28T05:28:02;5.43;;;2.97;;
15693;SDS011;7947;48.834;9.132;2023-02-28T05:31:05;3.73;;;2.50;;
15693;SDS011;7947;48.834;9.132;2023-02-28T05:34:09;5.57;;;2.93;;
15693;SDS011;7947;48.834;9.132;2023-02-28T05:37:13;7.60;;;3.27;;
15693;SDS011;7947;48.834;9.132;2023-02-28T05:40:18;4.37;;;2.73;;
15693;SDS011;7947;48.834;9.132;2023-02-28T05:43:21;4.50;;;2.90;;
15693;SDS011;7947;48.834;9.132;2023-02-28T05:46:24;5.70;;;3.13;;
15693;SDS011;7947;48.834;9.132;2023-02-28T05:49:27;5.27;;;2.60;;
15693;SDS011;7947;48.834;9.132;2023-02-28T05:52:31;4.40;;;2.63;;
15693;SDS011;7947;48.834;9.132;2023-02-28T05:55:35;5.07;;;2.63;;
15693;SDS011;7947;48.834;9.132;2023-02-28T05:58:38;5.37;;;2.70;;
15693;SDS011;7947;48.834;9.132;2023-02-28T06:01:42;4.37;;;2.73;;
15693;SDS011;7947;48.834;9.132;2023-02-28T06:04:49;5.67;;;3.57;;
15693;SDS011;7947;48.834;9.132;2023-02-28T06:07:52;4.40;;;2.93;;
15693;SDS011;7947;48.834;9.132;2023-02-28T06:10:56;4.67;;;2.90;;
15693;SDS011;7947;48.834;9.132;2023-02-28T06:13:59;4.77;;;3.23;;
15693;SDS011;7947;48.834;9.132;2023-02-28T06:17:02;3.70;;;2.80;;
15693;SDS011;7947;48.834;9.132;2023-02-28T06:20:06;5.40;;;3.57;;
15693;SDS011;7947;48.834;9.132;2023-02-28T06:23:10;6.20;;;3.07;;
15693;SDS011;7947;48.834;9.132;2023-02-28T06:26:14;5.17;;;3.40;;
15693;SDS011;7947;48.834;9.132;2023-02-28T06:29:17;4.60;;;3.23;;
15693;SDS011;7947;48.834;9.132;2023-02-28T06:32:20;6.57;;;3.20;;
15693;SDS011;7947;48.834;9.132;2023-02-28T06:35:23;4.73;;;3.10;;
15693;SDS011;7947;48.834;9.132;2023-02-28T06:38:26;7.57;;;3.10;;
15693;SDS011;7947;48.834;9.132;2023-02-28T06:41:30;4.50;;;2.97;;
15693;SDS011;7947;48.834;9.132;2023-02-28T06:44:54;6.87;;;3.70;;
15693;SDS011;7947;48.834;9.132;2023-02-28T06:47:58;11.30;;;4.17;;
15693;SDS011;7947;48.834;9.132;2023-02-28T06:51:02;5.83;;;3.27;;
15693;SDS011;7947;48.834;9.132;2023-02-28T06:54:05;5.80;;;3.50;;
15693;SDS011;7947;48.834;9.132;2023-02-28T06:57:12;8.03;;;3.07;;
15693;SDS011;7947;48.834;9.132;2023-02-28T07:00:15;6.30;;;3.03;;
15693;SDS011;7947;48.834;9.132;2023-02-28T07:03:18;6.27;;;2.97;;
15693;SDS011;7947;48.834;9.132;2023-02-28T07:06:22;5.73;;;3.23;;
15693;SDS011;7947;48.834;9.132;2023-02-28T07:09:25;6.47;;;3.60;;
15693;SDS011;7947;48.834;9.132;2023-02-28T07:12:32;5.53;;;3.37;;
15693;SDS011;7947;48.834;9.132;2023-02-28T07:15:35;5.23;;;3.43;;
15693;SDS011;7947;48.834;9.132;2023-02-28T07:18:42;7.10;;;3.10;;
15693;SDS011;7947;48.834;9.132;2023-02-28T07:21:48;6.80;;;3.50;;
15693;SDS011;7947;48.834;9.132;2023-02-28T07:24:51;5.47;;;3.37;;
15693;SDS011;7947;48.834;9.132;2023-02-28T07:27:55;5.87;;;3.37;;
15693;SDS011;7947;48.834;9.132;2023-02-28T07:31:03;7.73;;;3.90;;
15693;SDS011;7947;48.834;9.132;2023-02-28T07:34:06;4.83;;;3.37;;
15693;SDS011;7947;48.834;9.132;2023-02-28T07:37:10;4.13;;;3.10;;
15693;SDS011;7947;48.834;9.132;2023-02-28T07:40:13;4.77;;;3.07;;
15693;SDS011;7947;48.834;9.132;2023-02-28T07:43:18;5.87;;;3.93;;
15693;SDS011;7947;48.834;9.132;2023-02-28T07:46:20;4.40;;;3.10;;
15693;SDS011;7947;48.834;9.132;2023-02-28T07:49:24;7.37;;;3.67;;
15693;SDS011;7947;48.834;9.132;2023-02-28T07:52:27;6.73;;;3.63;;
15693;SDS011;7947;48.834;9.132;2023-02-28T07:55:30;6.60;;;3.50;;
15693;SDS011;7947;48.834;9.132;2023-02-28T07:58:35;7.57;;;4.30;;
15693;SDS011;7947;48.834;9.132;2023-02-28T08:01:37;5.83;;;4.00;;
15693;SDS011;7947;48.834;9.132;2023-02-28T08:04:40;8.27;;;3.77;;
15693;SDS011;7947;48.834;9.132;2023-02-28T08:07:43;5.87;;;3.63;;
15693;SDS011;7947;48.834;9.132;2023-02-28T08:10:46;5.20;;;3.60;;
15693;SDS011;7947;48.834;9.132;2023-02-28T08:13:50;6.57;;;3.43;;
15693;SDS011;7947;48.834;9.132;2023-02-28T08:16:53;9.10;;;3.90;;
15693;SDS011;7947;48.834;9.132;2023-02-28T08:19:56;6.37;;;3.97;;
15693;SDS011;7947;48.834;9.132;2023-02-28T08:22:59;5.43;;;2.93;;
15693;SDS011;7947;48.834;9.132;2023-02-28T08:26:02;6.30;;;3.57;;
15693;SDS011;7947;48.834;9.132;2023-02-28T08:29:07;7.83;;;4.00;;
15693;SDS011;7947;48.834;9.132;2023-02-28T08:32:09;8.47;;;3.77;;
15693;SDS011;7947;48.834;9.132;2023-02-28T08:35:29;6.17;;;3.87;;
15693;SDS011;7947;48.834;9.132;2023-02-28T08:38:32;8.97;;;4.40;;
15693;SDS011;7947;48.834;9.132;2023-02-28T08:41:35;4.87;;;3.37;;
15693;SDS011;7947;48.834;9.132;2023-02-28T08:44:39;7.67;;;4.03;;
15693;SDS011;7947;48.834;9.132;2023-02-28T08:47:42;6.17;;;3.90;;
15693;SDS011;7947;48.834;9.132;2023-02-28T08:50:54;8.50;;;4.03;;
15693;SDS011;7947;48.834;9.132;2023-02-28T08:54:07;6.00;;;4.20;;
15693;SDS011;7947;48.834;9.132;2023-02-28T08:57:11;6.93;;;3.93;;
15693;SDS011;7947;48.834;9.132;2023-02-28T09:00:16;8.67;;;4.67;;
15693;SDS011;7947;48.834;9.132;2023-02-28T09:03:19;8.80;;;4.30;;
15693;SDS011;7947;48.834;9.132;2023-02-28T09:06:25;7.40;;;4.23;;
15693;SDS011;7947;48.834;9.132;2023-02-28T09:09:29;6.57;;;4.00;;
15693;SDS011;7947;48.834;9.132;2023-02-28T09:12:33;6.73;;;3.77;;
15693;SDS011;7947;48.834;9.132;2023-02-28T09:15:38;7.87;;;4.47;;
15693;SDS011;7947;48.834;9.132;2023-02-28T09:18:41;6.13;;;3.97;;
15693;SDS011;7947;48.834;9.132;2023-02-28T09:21:45;6.63;;;4.43;;
15693;SDS011;7947;48.834;9.132;2023-02-28T09:24:47;8.37;;;4.57;;
15693;SDS011;7947;48.834;9.132;2023-02-28T09:27:50;9.93;;;5.10;;
15693;SDS011;7947;48.834;9.132;2023-02-28T09:30:54;8.13;;;4.53;;
15693;SDS011;7947;48.834;9.132;2023-02-28T09:33:58;6.60;;;4.40;;
15693;SDS011;7947;48.834;9.132;2023-02-28T09:37:02;7.00;;;4.27;;
15693;SDS011;7947;48.834;9.132;2023-02-28T09:40:05;7.23;;;4.33;;
15693;SDS011;7947;48.834;9.132;2023-02-28T09:43:09;7.53;;;4.83;;
15693;SDS011;7947;48.834;9.132;2023-02-28T09:46:29;8.77;;;4.87;;
15693;SDS011;7947;48.834;9.132;2023-02-28T09:49:37;7.80;;;4.73;;
15693;SDS011;7947;48.834;9.132;2023-02-28T09:52:43;6.27;;;4.57;;
15693;SDS011;7947;48.834;9.132;2023-02-28T09:55:52;8.30;;;4.70;;
15693;SDS011;7947;48.834;9.132;2023-02-28T09:58:58;7.53;;;5.07;;
15693;SDS011;7947;48.834;9.132;2023-02-28T10:02:09;5.80;;;4.27;;
15693;SDS011;7947;48.834;9.132;2023-02-28T10:05:22;8.57;;;4.33;;
15693;SDS011;7947;48.834;9.132;2023-02-28T10:08:30;9.10;;;5.13;;
15693;SDS011;7947;48.834;9.132;2023-02-28T10:11:42;7.10;;;4.73;;
15693;SDS011;7947;48.834;9.132;2023-02-28T10:14:52;7.53;;;5.00;;
15693;SDS011;7947;48.834;9.132;2023-02-28T10:18:00;8.10;;;4.80;;
15693;SDS011;7947;48.834;9.132;2023-02-28T10:21:13;7.20;;;4.67;;
15693;SDS011;7947;48.834;9.132;2023-02-28T10:24:23;7.83;;;5.20;;
15693;SDS011;7947;48.834;9.132;2023-02-28T10:27:31;7.83;;;4.50;;
15693;SDS011;7947;48.834;9.132;2023-02-28T10:30:34;8.63;;;4.53;;
15693;SDS011;7947;48.834;9.132;2023-02-28T10:33:40;8.67;;;4.93;;
15693;SDS011;7947;48.834;9.132;2023-02-28T10:36:44;8.53;;;4.77;;
15693;SDS011;7947;48.834;9.132;2023-02-28T10:39:47;7.10;;;4.60;;
15693;SDS011;7947;48.834;9.132;2023-02-28T10:42:54;9.03;;;4.77;;
15693;SDS011;7947;48.834;9.132;2023-02-28T10:45:58;7.93;;;4.33;;
15693;SDS011;7947;48.834;9.132;2023-02-28T10:49:07;7.60;;;4.23;;
15693;SDS011;7947;48.834;9.132;2023-02-28T10:55:38;10.63;;;5.40;;
15693;SDS011;7947;48.834;9.132;2023-02-28T10:58:48;7.83;;;5.47;;
15693;SDS011;7947;48.834;9.132;2023-02-28T11:01:57;8.50;;;5.13;;
15693;SDS011;7947;48.834;9.132;2023-02-28T11:05:01;9.23;;;5.20;;
15693;SDS011;7947;48.834;9.132;2023-02-28T11:08:05;10.10;;;5.20;;
15693;SDS011;7947;48.834;9.132;2023-02-28T11:11:14;9.00;;;5.10;;
15693;SDS011;7947;48.834;9.132;2023-02-28T11:14:19;7.17;;;5.17;;
15693;SDS011;7947;48.834;9.132;2023-02-28T11:17:25;7.87;;;4.47;;
15693;SDS011;7947;48.834;9.132;2023-02-28T11:20:32;9.20;;;5.07;;
15693;SDS011;7947;48.834;9.132;2023-02-28T11:23:36;8.87;;;5.67;;
15693;SDS011;7947;48.834;9.132;2023-02-28T11:26:44;9.07;;;5.33;;
15693;SDS011;7947;48.834;9.132;2023-02-28T11:29:49;9.60;;;5.50;;
15693;SDS011;7947;48.834;9.132;2023-02-28T11:32:52;7.73;;;5.33;;
15693;SDS011;7947;48.834;9.132;2023-02-28T11:35:58;7.67;;;5.10;;
15693;SDS011;7947;48.834;9.132;2023-02-28T11:39:07;7.23;;;5.33;;
15693;SDS011;7947;48.834;9.132;2023-02-28T11:42:20;8.13;;;5.20;;
15693;SDS011;7947;48.834;9.132;2023-02-28T11:45:41;7.50;;;5.20;;
15693;SDS011;7947;48.834;9.132;2023-02-28T11:48:52;7.03;;;5.23;;
15693;SDS011;7947;48.834;9.132;2023-02-28T11:52:05;7.63;;;5.20;;
15693;SDS011;7947;48.834;9.132;2023-02-28T11:55:17;7.97;;;5.20;;
15693;SDS011;7947;48.834;9.132;2023-02-28T11:58:38;9.17;;;5.20;;
15693;SDS011;7947;48.834;9.132;2023-02-28T12:02:00;9.17;;;5.57;;
15693;SDS011;7947;48.834;9.132;2023-02-28T12:05:13;7.07;;;4.80;;
15693;SDS011;7947;48.834;9.132;2023-02-28T12:08:30;7.03;;;4.80;;
15693;SDS011;7947;48.834;9.132;2023-02-28T12:11:48;11.20;;;6.27;;
15693;SDS011;7947;48.834;9.132;2023-02-28T12:14:59;8.43;;;5.33;;
15693;SDS011;7947;48.834;9.132;2023-02-28T12:18:27;9.73;;;5.60;;
15693;SDS011;7947;48.834;9.132;2023-02-28T12:21:58;6.43;;;4.80;;
15693;SDS011;7947;48.834;9.132;2023-02-28T12:28:51;8.37;;;5.10;;
15693;SDS011;7947;48.834;9.132;2023-02-28T12:32:04;7.33;;;4.70;;
15693;SDS011;7947;48.834;9.132;2023-02-28T12:35:11;6.73;;;4.93;;
15693;SDS011;7947;48.834;9.132;2023-02-28T12:38:17;9.13;;;5.67;;
15693;SDS011;7947;48.834;9.132;2023-02-28T12:41:25;7.83;;;5.00;;
15693;SDS011;7947;48.834;9.132;2023-02-28T12:44:46;8.47;;;5.07;;
15693;SDS011;7947;48.834;9.132;2023-02-28T12:47:55;8.67;;;4.93;;
15693;SDS011;7947;48.834;9.132;2023-02-28T12:51:00;7.10;;;4.80;;
15693;SDS011;7947;48.834;9.132;2023-02-28T12:54:09;7.53;;;4.63;;
15693;SDS011;7947;48.834;9.132;2023-02-28T12:57:18;7.17;;;5.43;;
15693;SDS011;7947;48.834;9.132;2023-02-28T13:00:32;7.37;;;4.97;;
15693;SDS011;7947;48.834;9.132;2023-02-28T13:03:47;9.67;;;5.23;;
15693;SDS011;7947;48.834;9.132;2023-02-28T13:07:19;8.10;;;4.87;;
15693;SDS011;7947;48.834;9.132;2023-02-28T13:10:43;8.43;;;5.07;;
15693;SDS011;7947;48.834;9.132;2023-02-28T13:13:47;6.80;;;4.40;;
15693;SDS011;7947;48.834;9.132;2023-02-28T13:16:59;7.80;;;4.27;;
15693;SDS011;7947;48.834;9.132;2023-02-28T13:20:13;10.23;;;5.57;;
15693;SDS011;7947;48.834;9.132;2023-02-28T13:34:13;7.03;;;5.40;;
15693;SDS011;7947;48.834;9.132;2023-02-28T13:37:32;8.13;;;5.30;;
15693;SDS011;7947;48.834;9.132;2023-02-28T13:40:37;6.40;;;4.93;;
15693;SDS011;7947;48.834;9.132;2023-02-28T13:47:22;7.43;;;5.23;;
15693;SDS011;7947;48.834;9.132;2023-02-28T13:50:32;6.80;;;5.03;;
15693;SDS011;7947;48.834;9.132;2023-02-28T13:53:54;8.53;;;5.00;;
15693;SDS011;7947;48.834;9.132;2023-02-28T13:57:06;7.67;;;4.80;;
15693;SDS011;7947;48.834;9.132;2023-02-28T14:00:26;6.07;;;4.47;;
15693;SDS011;7947;48.834;9.132;2023-02-28T14:03:51;4.83;;;4.07;;
15693;SDS011;7947;48.834;9.132;2023-02-28T14:07:07;7.23;;;4.83;;
15693;SDS011;7947;48.834;9.132;2023-02-28T14:10:22;7.00;;;4.47;;
15693;SDS011;7947;48.834;9.132;2023-02-28T14:13:38;6.77;;;4.63;;
15693;SDS011;7947;48.834;9.132;2023-02-28T14:16:46;5.43;;;4.17;;
15693;SDS011;7947;48.834;9.132;2023-02-28T14:19:51;5.93;;;4.00;;
15693;SDS011;7947;48.834;9.132;2023-02-28T14:22:56;6.90;;;4.90;;
15693;SDS011;7947;48.834;9.132;2023-02-28T14:26:06;7.37;;;4.93;;
15693;SDS011;7947;48.834;9.132;2023-02-28T14:29:27;7.30;;;5.10;;
15693;SDS011;7947;48.834;9.132;2023-02-28T14:32:41;7.80;;;4.77;;
15693;SDS011;7947;48.834;9.132;2023-02-28T14:35:54;8.03;;;5.87;;
15693;SDS011;7947;48.834;9.132;2023-02-28T14:39:07;6.07;;;4.43;;
15693;SDS011;7947;48.834;9.132;2023-02-28T14:42:27;7.30;;;5.20;;
15693;SDS011;7947;48.834;9.132;2023-02-28T14:45:31;7.13;;;4.90;;
15693;SDS011;7947;48.834;9.132;2023-02-28T14:48:36;9.60;;;5.50;;
15693;SDS011;7947;48.834;9.132;2023-02-28T14:51:39;6.63;;;4.60;;
15693;SDS011;7947;48.834;9.132;2023-02-28T14:54:43;7.90;;;5.50;;
15693;SDS011;7947;48.834;9.132;2023-02-28T14:57:51;8.73;;;5.60;;
15693;SDS011;7947;48.834;9.132;2023-02-28T15:00:56;9.47;;;5.90;;
15693;SDS011;7947;48.834;9.132;2023-02-28T15:04:00;7.27;;;4.93;;
15693;SDS011;7947;48.834;9.132;2023-02-28T15:07:08;7.07;;;4.63;;
15693;SDS011;7947;48.834;9.132;2023-02-28T15:10:15;9.23;;;4.77;;
15693;SDS011;7947;48.834;9.132;2023-02-28T15:13:20;5.93;;;4.50;;
15693;SDS011;7947;48.834;9.132;2023-02-28T15:16:25;8.83;;;5.63;;
15693;SDS011;7947;48.834;9.132;2023-02-28T15:19:33;8.60;;;5.67;;
15693;SDS011;7947;48.834;9.132;2023-02-28T15:22:38;7.33;;;5.40;;
15693;SDS011;7947;48.834;9.132;2023-02-28T15:25:43;6.67;;;4.93;;
15693;SDS011;7947;48.834;9.132;2023-02-28T15:28:46;7.90;;;5.20;;
15693;SDS011;7947;48.834;9.132;2023-02-28T15:31:55;6.93;;;4.10;;
15693;SDS011;7947;48.834;9.132;2023-02-28T15:35:17;7.17;;;4.80;;
15693;SDS011;7947;48.834;9.132;2023-02-28T15:38:22;6.47;;;4.70;;
15693;SDS011;7947;48.834;9.132;2023-02-28T15:41:28;8.80;;;5.77;;
15693;SDS011;7947;48.834;9.132;2023-02-28T15:44:33;10.27;;;5.43;;
15693;SDS011;7947;48.834;9.132;2023-02-28T15:47:38;7.60;;;5.37;;
15693;SDS011;7947;48.834;9.132;2023-02-28T15:50:41;7.30;;;4.73;;
15693;SDS011;7947;48.834;9.132;2023-02-28T15:53:45;10.77;;;5.50;;
15693;SDS011;7947;48.834;9.132;2023-02-28T15:56:53;11.07;;;5.30;;
15693;SDS011;7947;48.834;9.132;2023-02-28T16:00:00;7.50;;;4.87;;
15693;SDS011;7947;48.834;9.132;2023-02-28T16:06:36;7.17;;;4.90;;
15693;SDS011;7947;48.834;9.132;2023-02-28T16:09:40;8.10;;;5.27;;
15693;SDS011;7947;48.834;9.132;2023-02-28T16:12:45;7.20;;;5.33;;
15693;SDS011;7947;48.834;9.132;2023-02-28T16:15:47;6.47;;;5.10;;
15693;SDS011;7947;48.834;9.132;2023-02-28T16:18:53;6.87;;;5.10;;
15693;SDS011;7947;48.834;9.132;2023-02-28T16:21:57;6.23;;;4.57;;
15693;SDS011;7947;48.834;9.132;2023-02-28T16:25:03;8.43;;;5.00;;
15693;SDS011;7947;48.834;9.132;2023-02-28T16:28:12;7.83;;;5.70;;
15693;SDS011;7947;48.834;9.132;2023-02-28T16:31:23;7.87;;;5.73;;
15693;SDS011;7947;48.834;9.132;2023-02-28T16:34:27;7.33;;;5.00;;
15693;SDS011;7947;48.834;9.132;2023-02-28T16:37:31;8.30;;;5.47;;
15693;SDS011;7947;48.834;9.132;2023-02-28T16:40:34;8.60;;;5.53;;
15693;SDS011;7947;48.834;9.132;2023-02-28T16:43:39;8.97;;;5.53;;
15693;SDS011;7947;48.834;9.132;2023-02-28T16:46:42;9.70;;;5.77;;
15693;SDS011;7947;48.834;9.132;2023-02-28T16:49:45;8.00;;;5.63;;
15693;SDS011;7947;48.834;9.132;2023-02-28T16:52:48;11.20;;;6.30;;
15693;SDS011;7947;48.834;9.132;2023-02-28T16:55:53;9.10;;;5.47;;
15693;SDS011;7947;48.834;9.132;2023-02-28T16:58:58;8.27;;;5.90;;
15693;SDS011;7947;48.834;9.132;2023-02-28T17:02:04;10.20;;;5.77;;
15693;SDS011;7947;48.834;9.132;2023-02-28T17:05:13;10.97;;;6.53;;
15693;SDS011;7947;48.834;9.132;2023-02-28T17:08:18;10.90;;;6.23;;
15693;SDS011;7947;48.834;9.132;2023-02-28T17:11:21;8.43;;;5.77;;
15693;SDS011;7947;48.834;9.132;2023-02-28T17:14:25;8.37;;;5.97;;
15693;SDS011;7947;48.834;9.132;2023-02-28T17:17:28;8.33;;;5.97;;
15693;SDS011;7947;48.834;9.132;2023-02-28T17:20:32;8.70;;;5.63;;
15693;SDS011;7947;48.834;9.132;2023-02-28T17:23:34;13.57;;;6.13;;
15693;SDS011;7947;48.834;9.132;2023-02-28T17:26:37;9.83;;;5.77;;
15693;SDS011;7947;48.834;9.132;2023-02-28T17:29:42;8.50;;;5.90;;
15693;SDS011;7947;48.834;9.132;2023-02-28T17:32:45;9.90;;;6.07;;
15693;SDS011;7947;48.834;9.132;2023-02-28T17:35:48;11.90;;;6.10;;
15693;SDS011;7947;48.834;9.132;2023-02-28T17:38:51;10.80;;;6.03;;
15693;SDS011;7947;48.834;9.132;2023-02-28T17:41:55;10.03;;;6.07;;
15693;SDS011;7947;48.834;9.132;2023-02-28T17:45:00;10.00;;;5.80;;
15693;SDS011;7947;48.834;9.132;2023-02-28T17:48:03;11.13;;;5.70;;
15693;SDS011;7947;48.834;9.132;2023-02-28T17:51:08;9.83;;;5.93;;
15693;SDS011;7947;48.834;9.132;2023-02-28T17:54:13;9.77;;;6.17;;
15693;SDS011;7947;48.834;9.132;2023-02-28T17:57:19;9.80;;;6.60;;
15693;SDS011;7947;48.834;9.132;2023-02-28T18:00:23;9.77;;;5.90;;
15693;SDS011;7947;48.834;9.132;2023-02-28T18:03:26;11.40;;;6.70;;
15693;SDS011;7947;48.834;9.132;2023-02-28T18:06:32;10.27;;;6.37;;
15693;SDS011;7947;48.834;9.132;2023-02-28T18:09:37;10.53;;;6.50;;
15693;SDS011;7947;48.834;9.132;2023-02-28T18:12:40;9.53;;;5.97;;
15693;SDS011;7947;48.834;9.132;2023-02-28T18:15:44;10.73;;;6.43;;
15693;SDS011;7947;48.834;9.132;2023-02-28T18:18:48;9.87;;;6.23;;
15693;SDS011;7947;48.834;9.132;2023-02-28T18:21:52;10.33;;;6.77;;
15693;SDS011;7947;48.834;9.132;2023-02-28T18:24:55;9.97;;;6.13;;
15693;SDS011;7947;48.834;9.132;2023-02-28T18:27:58;11.43;;;5.87;;
15693;SDS011;7947;48.834;9.132;2023-02-28T18:31:06;9.27;;;6.20;;
15693;SDS011;7947;48.834;9.132;2023-02-28T18:34:08;8.40;;;5.93;;
15693;SDS011;7947;48.834;9.132;2023-02-28T18:37:11;8.63;;;5.80;;
15693;SDS011;7947;48.834;9.132;2023-02-28T18:40:16;11.20;;;6.80;;
15693;SDS011;7947;48.834;9.132;2023-02-28T18:43:19;7.90;;;5.30;;
15693;SDS011;7947;48.834;9.132;2023-02-28T18:46:23;10.33;;;6.43;;
15693;SDS011;7947;48.834;9.132;2023-02-28T18:49:26;12.10;;;6.30;;
15693;SDS011;7947;48.834;9.132;2023-02-28T18:52:28;10.83;;;6.03;;
15693;SDS011;7947;48.834;9.132;2023-02-28T18:55:31;10.43;;;6.00;;
15693;SDS011;7947;48.834;9.132;2023-02-28T18:58:34;9.27;;;5.63;;
15693;SDS011;7947;48.834;9.132;2023-02-28T19:01:38;8.90;;;5.60;;
15693;SDS011;7947;48.834;9.132;2023-02-28T19:04:41;7.90;;;6.10;;
15693;SDS011;7947;48.834;9.132;2023-02-28T19:07:45;8.63;;;5.47;;
15693;SDS011;7947;48.834;9.132;2023-02-28T19:10:48;9.87;;;6.33;;
15693;SDS011;7947;48.834;9.132;2023-02-28T19:13:52;9.70;;;5.63;;
15693;SDS011;7947;48.834;9.132;2023-02-28T19:16:56;8.87;;;5.20;;
15693;SDS011;7947;48.834;9.132;2023-02-28T19:19:59;7.83;;;5.13;;
15693;SDS011;7947;48.834;9.132;2023-02-28T19:23:01;10.30;;;5.90;;
15693;SDS011;7947;48.834;9.132;2023-02-28T19:26:05;10.03;;;5.17;;
15693;SDS011;7947;48.834;9.132;2023-02-28T19:29:08;9.90;;;5.87;;
15693;SDS011;7947;48.834;9.132;2023-02-28T19:32:12;11.17;;;6.60;;
15693;SDS011;7947;48.834;9.132;2023-02-28T19:35:15;9.17;;;5.67;;